Ponce de Leon, Florida
Current Conditions -  °F | °C
As of 7:55 AM on Monday 24 Nov 2014 (Local Time) from K54J Reporting Station
Broken Clouds Broken Clouds  
Wind Chill: 69°   Ceiling: 1100
Heat Index: 69°   Visibility: 7mi
Dew Point: 68°   Wind: 5mph
Humidity: 98%   Direction: 230°SW
Pressure: 29.85"   Gusts: NA
Location:  30.72°N, 85.94°W
Report Text: K54J 241355Z AUTO 23004KT 7SM BKN011 21/20 A2985 RMK AO2 T02050201
Loading
Personal Weather Stations






























Interactive Weather Map New forecast layout! Learn more

10-Day Weather Forecast

Advertisements
Track Severe Weather on mobile